createdAt,value
2022-10-23T01:07:56.061Z,5.20
2022-10-23T01:26:37.218Z,4.40
2022-10-23T02:22:40.758Z,6.50
2022-10-23T03:18:43.860Z,6.40
2022-10-23T03:56:06.356Z,7.80
2022-10-23T04:14:45.703Z,13.20
2022-10-23T04:33:28.685Z,10.30
2022-10-23T04:52:10.223Z,7.50
2022-10-23T05:10:50.923Z,8.50
2022-10-23T05:29:32.496Z,7.00
2022-10-23T05:48:22.707Z,6.60
2022-10-23T06:06:55.453Z,15.80
2022-10-23T06:25:36.481Z,11.90
2022-10-23T06:44:19.085Z,5.00
2022-10-23T07:03:01.789Z,8.60
2022-10-23T07:40:27.073Z,8.00
2022-10-23T07:59:10.578Z,7.10
2022-10-23T08:17:51.400Z,3.90
2022-10-23T08:36:35.689Z,4.90
2022-10-23T08:55:17.986Z,2.50
2022-10-23T09:14:03.729Z,3.40
2022-10-23T09:32:46.614Z,1.20
2022-10-23T09:51:29.662Z,1.30
2022-10-23T10:28:58.946Z,1.00
2022-10-23T10:47:49.173Z,0.80
2022-10-23T11:06:35.023Z,1.30
2022-10-23T11:25:25.367Z,0.50
2022-10-23T12:02:37.529Z,0.60
2022-10-23T12:21:15.837Z,1.50
2022-10-23T12:40:05.400Z,0.30
2022-10-23T12:58:45.814Z,0.40
2022-10-23T13:17:28.092Z,0.60
2022-10-23T13:36:07.958Z,0.50
2022-10-23T13:54:56.924Z,1.40
2022-10-23T14:13:41.949Z,1.00
2022-10-23T14:32:18.529Z,0.70
2022-10-23T14:51:02.885Z,1.30
2022-10-23T15:09:16.514Z,1.70
2022-10-23T15:27:49.207Z,1.70
2022-10-23T15:46:22.612Z,1.20
2022-10-23T16:04:57.845Z,2.10
2022-10-23T16:23:33.620Z,2.40
2022-10-23T17:00:49.571Z,4.10
2022-10-23T17:38:06.654Z,3.20
2022-10-23T17:56:43.116Z,2.80
2022-10-23T18:33:59.236Z,2.50
2022-10-23T18:52:44.952Z,4.00
2022-10-23T19:11:18.202Z,2.30
2022-10-23T19:30:03.501Z,2.40
2022-10-23T19:48:38.452Z,3.00
2022-10-23T20:07:19.515Z,2.90
2022-10-23T20:25:59.610Z,1.50
2022-10-23T20:44:36.715Z,4.00
2022-10-23T21:03:18.110Z,3.30
2022-10-23T21:21:56.793Z,3.40
2022-10-23T21:40:35.381Z,3.40
2022-10-23T21:59:16.200Z,2.00
2022-10-23T22:17:59.173Z,5.10
2022-10-23T22:36:36.401Z,2.80
2022-10-23T22:55:17.947Z,3.30
2022-10-23T23:13:59.759Z,2.40
2022-10-23T23:32:40.051Z,2.90
2022-10-23T23:51:19.901Z,2.80
